Flight Track Log - Related Links

Times and Time Zones

All times are in EDT time to prevent confusion due to time zone crossing. See the N682RW flight status page for this flight to view local times or setup timezone preferences in your user account.

Time Position Orientation Groundspeed Altitude Reporting Facility
EDT Latitude Longitude Course Direction KTS km/h feet Rate Location/Type
Sun 12:15:23 49.1667 -123.2667 90° East 200 370 2.700  Level Vancouver Center
Sun 12:16:23 49.1500 -123.3667 256° West 240 444 5.600 3.000 Climbing Vancouver Center
Sun 12:17:23 49.0833 -123.3667 180° South 280 518 8.700 2.700 Climbing Vancouver Center
Sun 12:18:23 49.0500 -123.2667 117° Southeast 320 592 11.000 1.700 Climbing Vancouver Center
Sun 12:19:00 48.9334 -122.1365 90° East  Level FlightAware Approximate
Sun 12:19:23 49.0167 -123.1167 109° East 370 686 12.100  Level Vancouver Center
Sun 12:20:00 48.9333 -121.9412 90° East  Level FlightAware Approximate
Sun 12:20:23 48.9833 -122.9667 109° East 370 686 12.800  Level Vancouver Center
Sun 12:21:23 48.9500 -122.8000 107° East 390 723 14.900 2.150 Climbing Vancouver Center
Sun 12:22:23 48.9333 -122.6333 99° East 420 777 17.100 2.050 Climbing Vancouver Center
Sun 12:23:23 48.9333 -122.4500 90° East 440 814 19.000 2.150 Climbing Vancouver Center
Sun 12:24:23 48.9333 -122.2500 90° East 460 851 21.400 2.050 Climbing Vancouver Center
Sun 12:25:23 48.9333 -122.0500 90° East 470 871 23.100 1.650 Climbing Vancouver Center
Sun 12:26:23 48.9333 -121.8500 90° East 490 908 24.700 1.600 Climbing Vancouver Center
Sun 12:27:23 48.9333 -121.6167 90° East 510 945 26.300 1.450 Climbing Vancouver Center
Sun 12:28:23 48.9500 -121.4167 83° East 520 962 27.600 1.500 Climbing Vancouver Center
Sun 12:29:23 48.9333 -121.1833 96° East 520 962 29.300 1.500 Climbing Vancouver Center
Sun 12:30:23 48.9500 -120.9833 83° East 520 962 30.600 1.350 Climbing Vancouver Center
Sun 12:31:23 48.9833 -120.7500 78° East 510 945 32.000 1.200 Climbing Vancouver Center
Sun 12:32:23 48.9833 -120.5500 90° East 490 908 33.000 500 Climbing Vancouver Center
Sun 12:33:23 49.0167 -120.3333 77° East 500 925 33.000  Level Vancouver Center
Sun 12:34:23 49.0333 -120.1000 84° East 510 945 33.000  Level Vancouver Center
Sun 12:35:23 49.0333 -119.9000 90° East 510 945 33.000  Level Vancouver Center
Sun 12:36:23 49.0667 -119.6667 78° East 510 945 33.000  Level Vancouver Center
Sun 12:37:23 49.0667 -119.4667 90° East 510 945 33.000  Level Vancouver Center
Sun 12:38:23 49.1000 -119.2333 78° East 510 945 33.000  Level Vancouver Center
Sun 12:39:23 49.1000 -119.0333 90° East 510 945 33.000  Level Vancouver Center
Sun 12:40:23 49.1167 -118.8167 83° East 510 945 33.000  Level Vancouver Center
Sun 12:41:23 49.1333 -118.6167 83° East 510 945 33.000  Level Vancouver Center
Sun 12:42:23 49.1500 -118.3833 84° East 510 945 33.000  Level Vancouver Center
Sun 12:43:23 49.1500 -118.1833 90° East 510 945 33.000  Level Vancouver Center
Sun 12:44:23 49.1667 -117.9667 83° East 500 925 33.000  Level Vancouver Center
Sun 12:45:23 49.1833 -117.7500 83° East 510 945 33.000  Level Vancouver Center
Sun 12:46:23 49.2000 -117.5333 83° East 510 945 33.000  Level Vancouver Center
Sun 12:47:23 49.2000 -117.3333 90° East 510 945 33.000  Level Vancouver Center
Sun 12:48:23 49.2000 -117.1000 90° East 510 945 33.000  Level Vancouver Center
Sun 12:49:23 49.2333 -116.8833 77° East 510 945 33.000  Level Vancouver Center
Sun 12:50:23 49.2333 -116.6667 90° East 510 945 33.000  Level Vancouver Center
Sun 12:50:59 49.2333 -116.6000 90° East 510 945 33.000  Level Edmonton Center
Sun 12:51:59 49.2333 -116.3667 90° East 500 925 33.000  Level Edmonton Center
Sun 12:52:23 49.2500 -116.2500 78° East 510 945 33.000  Level Vancouver Center
Sun 12:53:23 49.2500 -116.0167 90° East 510 945 33.000  Level Vancouver Center
Sun 12:54:23 49.2333 -115.8167 97° East 510 945 33.000  Level Vancouver Center
Sun 12:54:59 49.2167 -115.7333 107° East 520 962 33.000  Level Edmonton Center
Sun 12:55:23 49.2333 -115.5833 80° East 520 962 33.000  Level Vancouver Center
Sun 12:56:23 49.2167 -115.3833 97° East 520 962 33.000  Level Vancouver Center
Sun 12:56:59 49.2000 -115.2833 104° East 520 962 33.000  Level Edmonton Center
Sun 12:57:59 49.1667 -115.0667 103° East 510 945 33.000  Level Edmonton Center
Sun 12:58:59 49.1500 -114.8667 97° East 510 945 33.000  Level Edmonton Center
Sun 12:59:59 49.1333 -114.6333 96° East 510 945 33.000  Level Edmonton Center
Sun 13:00:59 49.1167 -114.4167 97° East 510 945 33.000  Level Edmonton Center
Sun 13:01:59 49.1000 -114.2000 97° East 510 945 33.000  Level Edmonton Center
Sun 13:02:59 49.0667 -114.0000 104° East 520 962 33.000  Level Edmonton Center
Sun 13:03:59 49.0500 -113.7833 97° East 520 962 33.000  Level Edmonton Center
Sun 13:04:59 49.0333 -113.5500 96° East 510 945 33.000  Level Edmonton Center
Sun 13:05:59 49.0167 -113.3333 97° East 520 962 33.000  Level Edmonton Center
Sun 13:06:35 49.0425 -113.2006 73° East 518 959 33.000  Level Salt Lake Center
Sun 13:07:36 49.0208 -112.9839 99° East 519 961 33.000  Level Salt Lake Center
Sun 13:07:59 48.9667 -112.9000 135° Southeast 510 945 33.000  Level Edmonton Center
Sun 13:08:59 48.9500 -112.6833 97° East 510 945 33.000  Level Edmonton Center
Sun 13:09:59 48.9333 -112.4833 97° East 510 945 33.000  Level Edmonton Center
Sun 13:10:59 48.9167 -112.2333 96° East 510 945 33.000  Level Edmonton Center
Sun 13:11:59 48.9000 -112.0667 99° East 510 945 33.000  Level Edmonton Center
Sun 13:12:59 48.8667 -111.8167 101° East 510 945 33.000  Level Edmonton Center
Sun 13:13:44 48.8844 -111.6669 80° East 519 961 33.000  Level Salt Lake Center
Sun 13:14:46 48.8611 -111.4544 99° East 515 954 33.000  Level Salt Lake Center
Sun 13:15:47 48.8358 -111.2394 100° East 515 954 33.000  Level Salt Lake Center
Sun 13:16:48 48.8122 -111.0239 99° East 516 956 33.000  Level Salt Lake Center
Sun 13:17:50 48.7875 -110.8103 100° East 516 956 33.000  Level Salt Lake Center
Sun 13:18:51 48.7569 -110.5508 100° East 519 961 33.000  Level Salt Lake Center
Sun 13:19:53 48.7303 -110.3375 101° East 518 959 33.000  Level Salt Lake Center
Sun 13:20:54 48.7047 -110.1236 100° East 517 958 33.000  Level Salt Lake Center
Sun 13:21:56 48.6786 -109.9117 100° East 515 954 33.000  Level Salt Lake Center
Sun 13:22:57 48.6514 -109.6992 101° East 515 954 33.000  Level Salt Lake Center
Sun 13:23:58 48.6244 -109.4878 101° East 514 953 33.000  Level Salt Lake Center
Sun 13:25:00 48.5983 -109.2764 101° East 513 950 33.000  Level Salt Lake Center
Sun 13:26:01 48.5711 -109.0642 101° East 514 953 33.000  Level Salt Lake Center
Sun 13:27:03 48.5406 -108.8506 102° East 517 958 33.000  Level Salt Lake Center
Sun 13:28:04 48.5042 -108.5956 102° East 519 961 33.000 -49 Level Salt Lake Center
Sun 13:29:06 48.4750 -108.3867 102° East 514 953 32.900  Descending Salt Lake Center
Sun 13:30:07 48.4469 -108.1781 101° East 510 945 33.000 49 Climbing Salt Lake Center
Sun 13:31:09 48.4161 -107.9694 102° East 511 946 33.000  Level Salt Lake Center
Sun 13:32:10 48.3869 -107.7589 102° East 514 953 33.000  Level Salt Lake Center
Sun 13:33:12 48.3567 -107.5508 102° East 512 948 33.000  Level Salt Lake Center
Sun 13:34:13 48.3194 -107.3158 103° East 513 950 33.000  Level Salt Lake Center
Sun 13:35:15 48.2892 -107.1081 102° East 512 948 33.000  Level Salt Lake Center
Sun 13:36:17 48.2572 -106.9033 103° East 507 938 33.000  Level Salt Lake Center
Sun 13:37:18 48.2256 -106.6986 103° East 506 937 33.000  Level Salt Lake Center
Sun 13:38:20 48.1986 -106.4914 101° East 508 941 33.000  Level Salt Lake Center
Sun 13:39:22 48.1775 -106.2831 99° East 508 941 33.000  Level Salt Lake Center
Sun 13:40:23 48.1550 -106.0758 99° East 506 937 33.000  Level Salt Lake Center
Sun 13:41:25 48.1289 -105.8272 99° East 505 935 33.000  Level Salt Lake Center
Sun 13:42:27 48.1056 -105.6206 100° East 505 935 33.000  Level Salt Lake Center
Sun 13:43:28 48.0833 -105.4133 99° East 506 937 33.000  Level Salt Lake Center
Sun 13:44:30 48.0592 -105.2072 100° East 506 937 33.000  Level Salt Lake Center
Sun 13:45:32 48.0356 -105.0003 100° East 506 937 33.000 -49 Level Salt Lake Center
Sun 13:46:33 48.0106 -104.7953 100° East 504 933 32.900  Descending Salt Lake Center
Sun 13:47:35 47.9878 -104.5908 99° East 502 930 33.000 48 Climbing Salt Lake Center
Sun 13:48:37 47.9553 -104.3475 101° East 501 929 33.000  Level Salt Lake Center
Sun 13:49:39 47.9294 -104.1467 101° East 498 922 33.000  Level Salt Lake Center
Sun 13:50:41 47.9044 -103.9433 100° East 495 917 33.000  Level Salt Lake Center
Sun 13:51:42 47.8786 -103.7403 101° East 494 914 33.000  Level Salt Lake Center
Sun 13:52:44 47.8517 -103.5386 101° East 491 909 33.000  Level Salt Lake Center
Sun 13:53:46 47.8247 -103.3367 101° East 492 911 33.000  Level Salt Lake Center
Sun 13:54:48 47.7986 -103.1389 101° East 489 906 33.000 194 Level Salt Lake Center
Sun 13:55:50 47.7728 -102.9417 101° East 488 904 33.400 700 Climbing Salt Lake Center
Sun 13:56:48 47.7447 -102.7469 102° East 484 896 34.400 800 Climbing Minneapolis Center
Sun 13:57:50 47.7189 -102.5533 101° East 479 887 35.000 244 Climbing Minneapolis Center
Sun 13:58:51 47.6914 -102.3558 102° East 485 898 34.900  Descending Minneapolis Center
Sun 13:59:53 47.6603 -102.1581 103° East 490 908 35.000 49 Climbing Minneapolis Center
Sun 14:00:54 47.6283 -101.9217 101° East 489 906 35.000  Level Minneapolis Center
Sun 14:01:56 47.5986 -101.7236 102° East 490 908 35.000  Level Minneapolis Center
Sun 14:02:58 47.5706 -101.5297 102° East 485 898 35.000  Level Minneapolis Center
Sun 14:03:59 47.5411 -101.3333 102° East 487 901 35.000  Level Minneapolis Center
Sun 14:05:01 47.5136 -101.1408 102° East 482 893 35.000  Level Minneapolis Center
Sun 14:06:02 47.4825 -100.9403 103° East 478 885 35.000  Level Minneapolis Center
Sun 14:07:04 47.4525 -100.7506 103° East 477 884 35.000  Level Minneapolis Center
Sun 14:08:05 47.4214 -100.5600 103° East 478 885 35.000  Level Minneapolis Center
Sun 14:09:07 47.3872 -100.3692 105° East 482 893 35.000  Level Minneapolis Center
Sun 14:10:09 47.3508 -100.1450 103° East 473 875 35.000  Level Minneapolis Center
Sun 14:11:10 47.3194 -99.9564 104° East 474 877 35.000  Level Minneapolis Center
Sun 14:12:12 47.2875 -99.7667 104° East 478 885 35.000  Level Minneapolis Center
Sun 14:13:13 47.2544 -99.5772 104° East 480 888 35.000 -49 Level Minneapolis Center
Sun 14:14:15 47.2228 -99.3894 104° East 477 884 34.900  Descending Minneapolis Center
Sun 14:15:17 47.1903 -99.2008 104° East 476 882 35.000 49 Climbing Minneapolis Center
Sun 14:16:18 47.1569 -99.0131 105° East 479 887 35.000  Level Minneapolis Center
Sun 14:17:20 47.1178 -98.7881 104° East 477 884 35.000  Level Minneapolis Center
Sun 14:18:21 47.0847 -98.6042 105° East 473 875 35.000  Level Minneapolis Center
Sun 14:19:23 47.0514 -98.4211 105° East 471 872 35.000  Level Minneapolis Center
Sun 14:20:25 47.0186 -98.2406 105° East 466 863 35.000  Level Minneapolis Center
Sun 14:21:26 46.9850 -98.0567 105° East 469 869 35.000  Level Minneapolis Center
Sun 14:22:28 46.9519 -97.8747 105° East 469 869 35.000  Level Minneapolis Center
Sun 14:23:30 46.9103 -97.6572 106° East 468 867 35.000  Level Minneapolis Center
Sun 14:24:31 46.8756 -97.4742 105° East 471 872 35.000  Level Minneapolis Center
Sun 14:25:33 46.8389 -97.2908 106° East 472 874 35.000  Level Minneapolis Center
Sun 14:26:47 46.8044 -97.1089 105° East 469 869 35.000  Level Minneapolis Center
Sun 14:27:49 46.7622 -96.8908 106° East 469 869 35.000  Level Minneapolis Center
Sun 14:28:51 46.7003 -96.7278 119° Southeast 464 859 35.000  Level Minneapolis Center
Sun 14:29:52 46.6183 -96.5422 123° Southeast 458 848 35.000  Level Minneapolis Center
Sun 14:30:54 46.5494 -96.3853 123° Southeast 460 851 35.000  Level Minneapolis Center
Sun 14:31:56 46.4789 -96.2286 123° Southeast 464 859 35.000  Level Minneapolis Center
Sun 14:32:58 46.4111 -96.0725 122° Southeast 462 856 35.000  Level Minneapolis Center
Sun 14:33:59 46.3400 -95.9172 124° Southeast 463 858 35.000  Level Minneapolis Center
Sun 14:35:01 46.2653 -95.7469 122° Southeast 462 856 35.000  Level Minneapolis Center
Sun 14:36:03 46.1947 -95.5925 123° Southeast 460 851 35.000  Level Minneapolis Center
Sun 14:37:05 46.1242 -95.4389 123° Southeast 459 850 35.000  Level Minneapolis Center
Sun 14:38:06 46.0542 -95.2847 123° Southeast 460 851 35.000  Level Minneapolis Center
Sun 14:39:08 45.9692 -95.1000 123° Southeast 462 856 35.000  Level Minneapolis Center
Sun 14:40:10 45.9075 -94.9672 124° Southeast 459 850 35.000  Level Minneapolis Center
Sun 14:41:12 45.8358 -94.8133 124° Southeast 463 858 35.000  Level Minneapolis Center
Sun 14:42:13 45.7508 -94.6292 123° Southeast 464 859 35.000  Level Minneapolis Center
Sun 14:43:15 45.6786 -94.4786 124° Southeast 463 858 35.000  Level Minneapolis Center
Sun 14:44:17 45.6067 -94.3275 124° Southeast 461 855 35.000  Level Minneapolis Center
Sun 14:45:18 45.5342 -94.1756 124° Southeast 464 859 35.000  Level Minneapolis Center
Sun 14:46:20 45.4622 -94.0253 124° Southeast 461 855 35.000  Level Minneapolis Center
Sun 14:47:22 45.3903 -93.8747 124° Southeast 462 856 35.000  Level Minneapolis Center
Sun 14:48:24 45.3178 -93.7253 125° Southeast 460 851 35.000  Level Minneapolis Center
Sun 14:49:25 45.2308 -93.5461 125° Southeast 461 855 35.000  Level Minneapolis Center
Sun 14:50:27 45.1575 -93.3967 125° Southeast 461 855 35.000  Level Minneapolis Center
Sun 14:51:29 45.0869 -93.2439 123° Southeast 465 861 35.000  Level Minneapolis Center
Sun 14:52:30 45.0289 -93.0744 116° Southeast 475 880 35.000  Level Minneapolis Center
Sun 14:53:32 44.9686 -92.9094 117° Southeast 469 869 35.000  Level Minneapolis Center
Sun 14:54:34 44.9342 -92.7272 105° East 479 887 35.000  Level Minneapolis Center
Sun 14:55:35 44.8986 -92.5447 105° East 481 892 35.000  Level Minneapolis Center
Sun 14:56:37 44.8631 -92.3650 106° East 479 887 35.000  Level Minneapolis Center
Sun 14:57:39 44.8272 -92.1839 106° East 479 887 35.000  Level Minneapolis Center
Sun 14:58:40 44.7844 -91.9703 106° East 476 882 35.000  Level Minneapolis Center
Sun 14:59:42 44.7475 -91.7906 106° East 478 885 35.000  Level Minneapolis Center
Sun 15:00:43 44.7111 -91.6111 106° East 479 887 35.000  Level Minneapolis Center
Sun 15:01:45 44.6742 -91.4325 106° East 479 887 35.000  Level Minneapolis Center
Sun 15:02:46 44.6369 -91.2539 106° East 479 887 35.000  Level Minneapolis Center
Sun 15:03:48 44.5992 -91.0775 107° East 476 882 35.000  Level Minneapolis Center
Sun 15:04:50 44.5572 -90.8803 107° East 476 882 35.000  Level Minneapolis Center
Sun 15:05:51 44.5183 -90.7028 107° East 475 880 35.000  Level Minneapolis Center
Sun 15:06:53 44.4803 -90.5250 107° East 478 885 35.000  Level Minneapolis Center
Sun 15:08:06 44.4303 -90.2897 106° East 474 877 35.000  Level Minneapolis Center
Sun 15:09:08 44.3906 -90.1119 107° East 475 880 35.000  Level Minneapolis Center
Sun 15:10:09 44.3508 -89.9356 107° East 476 882 35.000  Level Minneapolis Center
Sun 15:11:11 44.3117 -89.7583 107° East 476 882 35.000  Level Minneapolis Center
Sun 15:12:12 44.2714 -89.5822 108° East 475 880 35.000  Level Minneapolis Center
Sun 15:13:13 44.2317 -89.4083 108° East 472 874 35.000  Level Minneapolis Center
Sun 15:14:15 44.1906 -89.2311 108° East 477 884 35.000  Level Minneapolis Center
Sun 15:15:16 44.1569 -89.0828 107° East 479 887 35.000  Level Minneapolis Center
Sun 15:16:18 44.1083 -88.8761 108° East 480 888 35.000  Level Minneapolis Center
Sun 15:17:19 44.0597 -88.6697 108° East 479 887 35.000  Level Minneapolis Center
Sun 15:18:20 44.0169 -88.4931 109° East 480 888 35.000  Level Minneapolis Center
Sun 15:19:22 43.9747 -88.3156 108° East 481 892 35.000  Level Minneapolis Center
Sun 15:20:23 43.9319 -88.1389 109° East 480 888 35.000  Level Minneapolis Center
Sun 15:21:25 43.8894 -87.9642 109° East 476 882 35.000  Level Minneapolis Center
Sun 15:22:26 43.8458 -87.7889 109° East 478 885 35.000 -344 Level Minneapolis Center
Sun 15:23:27 43.8025 -87.6128 109° East 480 888 34.300 -778 Descending Minneapolis Center
Sun 15:24:14 43.7664 -87.4664 109° East 481 892 33.600 -716 Descending Chicago Center
Sun 15:25:16 43.7292 -87.3181 109° East 481 892 33.000 -356 Descending Chicago Center
Sun 15:25:55 43.6928 -87.1792 110° East 479 887 33.000  Level Chicago Center
Sun 15:26:31 43.6678 -87.0744 108° East 479 887 33.000  Level Minneapolis Center
Sun 15:27:33 43.6233 -86.9022 110° East 478 885 33.000 -349 Level Minneapolis Center
Sun 15:27:57 43.6081 -86.8317 107° East 481 892 32.500 -2.023 Descending Chicago Center
Sun 15:28:59 43.5714 -86.6536 106° East 481 892 30.100 -2.143 Descending Chicago Center
Sun 15:29:35 43.5483 -86.5442 106° East 485 898 29.000 -1.531 Descending Minneapolis Center
Sun 15:30:37 43.5092 -86.3661 107° East 485 898 27.600 -1.295 Descending Minneapolis Center
Sun 15:31:03 43.4931 -86.2933 107° East 483 895 27.100 -1.432 Descending Chicago Center
Sun 15:32:05 43.4539 -86.1239 108° East 476 882 25.500 -1.306 Descending Chicago Center
Sun 15:33:07 43.4081 -85.9150 107° East 473 875 24.400 -884 Descending Chicago Center
Sun 15:33:40 43.3917 -85.8442 108° East 474 877 24.100 -677 Descending Minneapolis Center
Sun 15:34:09 43.3686 -85.7433 107° East 468 867 23.700 -659 Descending Chicago Center
Sun 15:35:11 43.3300 -85.5717 107° East 465 861 23.100 -339 Descending Chicago Center
Sun 15:36:13 43.2903 -85.4044 108° East 462 856 23.000 -53 Descending Chicago Center
Sun 15:37:04 43.2575 -85.2647 108° East 477 884 23.000  Level Cleveland Center
Sun 15:38:04 43.2244 -85.0994 105° East 459 850 23.000  Level Cleveland Center
Sun 15:39:04 43.1933 -84.9292 104° East 459 850 23.000  Level Cleveland Center
Sun 15:40:04 43.1600 -84.7589 105° East 459 850 23.000 -700 Level Cleveland Center
Sun 15:41:04 43.1158 -84.5967 110° East 459 850 21.600 -1.823 Descending Cleveland Center
Sun 15:41:23 43.0972 -84.5347 112° Southeast 459 850 20.600 -2.593 Descending Chicago Center
Sun 15:42:25 43.0481 -84.3833 114° Southeast 438 811 18.100 -2.020 Descending Chicago Center
Sun 15:43:04 43.0175 -84.2947 115° Southeast 430 797 17.200 -2.500 Descending Cleveland Center
Sun 15:43:49 42.9775 -84.1703 114° Southeast 413 764 14.600 -2.800 Descending Cleveland Center
Sun 15:44:04 42.9697 -84.1528 121° Southeast 424 785 14.400 -1.440 Descending Cleveland Center
Sun 15:45:04 42.9281 -84.0200 113° Southeast 410 760 12.800 -1.109 Descending Cleveland Center
Sun 15:46:03 42.8858 -83.8931 114° Southeast 310 575 12.200 -400 Descending Cleveland Center
Sun 15:47:04 42.8550 -83.7978 114° Southeast 326 604 12.000 -195 Descending Cleveland Center
Sun 15:48:06 42.7931 -83.7042 132° Southeast 305 565 11.800 -500 Descending Cleveland Center
Sun 15:49:04 42.7272 -83.6725 161° South 278 515 11.000 -1.200 Descending Cleveland Center
Sun 15:50:01 42.6483 -83.6242 156° South 285 528 9.500 -1.481 Descending FAA TRACON SMA TRACON (SMA)
Sun 15:50:21 42.6269 -83.6097 154° Southeast 279 517 9.100 -1.400 Descending FAA TRACON SMA TRACON (SMA)
Sun 15:51:01 42.6008 -83.5481 120° Southeast 274 507 8.100 -1.500 Descending FAA TRACON SMA TRACON (SMA)
Sun 15:51:21 42.5914 -83.5192 114° Southeast 270 501 7.600 -1.317 Descending FAA TRACON SMA TRACON (SMA)
Sun 15:51:42 42.5783 -83.4939 125° Southeast 259 480 7.200 -1.463 Descending FAA TRACON SMA TRACON (SMA)
Sun 15:52:02 42.5592 -83.4661 133° Southeast 263 488 6.600 -1.200 Descending FAA TRACON SMA TRACON (SMA)
Sun 15:52:22 42.5433 -83.4439 134° Southeast 264 489 6.400 -600 Descending FAA TRACON SMA TRACON (SMA)
Sun 15:52:42 42.5281 -83.4211 132° Southeast 263 488 6.200 -450 Descending FAA TRACON SMA TRACON (SMA)
Sun 15:53:02 42.5128 -83.3992 133° Southeast 259 480 6.100 -308 Descending FAA TRACON SMA TRACON (SMA)
Sun 15:53:21 42.4947 -83.3742 134° Southeast 230 426 6.000 -615 Descending FAA TRACON SMA TRACON (SMA)
Sun 15:53:41 42.4817 -83.3564 135° Southeast 212 393 5.700 -1.050 Descending FAA TRACON SMA TRACON (SMA)
Sun 15:54:01 42.4694 -83.3383 133° Southeast 210 389 5.300 -1.350 Descending FAA TRACON SMA TRACON (SMA)
Sun 15:54:21 42.4519 -83.3186 140° Southeast 212 393 4.800 -1.350 Descending FAA TRACON SMA TRACON (SMA)
Sun 15:54:41 42.4356 -83.3094 158° South 209 388 4.400 -1.200 Descending FAA TRACON SMA TRACON (SMA)
Sun 15:55:01 42.4178 -83.3064 173° South 191 354 4.000 -492 Descending FAA TRACON SMA TRACON (SMA)
Sun 15:55:42 42.3750 -83.3014 175° South 206 381 3.900 -197 Descending FAA TRACON SMA TRACON (SMA)
Sun 15:56:02 42.3608 -83.3003 177° South 175 323 3.800 -900 Descending FAA TRACON SMA TRACON (SMA)
Sun 15:56:22 42.3431 -83.2983 175° South 177 328 3.300 -1.350 Descending FAA TRACON SMA TRACON (SMA)
Sun 15:56:42 42.3256 -83.2989 181° South 176 327 2.900 -1.077 Descending FAA TRACON SMA TRACON (SMA)
Sun 15:57:01 42.3125 -83.3044 197° South 175 323 2.600 -769 Descending FAA TRACON SMA TRACON (SMA)
Sun 15:57:21 42.2953 -83.3158 206° Southwest 179 332 2.400 -450 Descending FAA TRACON SMA TRACON (SMA)
Sun 15:57:41 42.2828 -83.3247 208° Southwest 181 335 2.300 -732 Descending FAA TRACON SMA TRACON (SMA)
Sun 15:58:02 42.2675 -83.3361 209° Southwest 165 306 1.900 -1.171 Descending FAA TRACON SMA TRACON (SMA)
Sun 15:58:22 42.2550 -83.3453 208° Southwest 146 270 1.500 -1.050 Descending FAA TRACON SMA TRACON (SMA)
Sun 15:58:42 42.2444 -83.3528 208° Southwest 144 267 1.200 -900 Descending FAA TRACON SMA TRACON (SMA)
Sun 15:59:02 42.2322 -83.3619 209° Southwest 140 259 900 -750 Descending FAA TRACON SMA TRACON (SMA)
Sun 15:59:22 42.2225 -83.3692 209° Southwest 137 254 700 -300 Descending FAA TRACON SMA TRACON (SMA)
Sun 15:59:42 42.2136 -83.3756 208° Southwest 67 124 700  Level FAA TRACON SMA TRACON (SMA)
Sun 16:00:21 42.2136 -83.3756 71° East 67 124 700  Level FAA TRACON SMA TRACON (SMA)

Login

Don't have an account? Register now (free) for customized features, flight alerts, and more!